Time;durP1;ratioP1;P1;durP2;ratioP2;P2;SDS_P1;SDS_P2;PMS_P1;PMS_P2;Temp;Humidity;BMP_temperature;BMP_pressure;BME280_temperature;BME280_humidity;BME280_pressure;Samples;Min_cycle;Max_cycle;Signal;HPM_P1;HPM_P2
2022/12/18 00:01:43;;;;;;;;;;;-5.60;99.50;;;;;;5038317;28;19929;-76
2022/12/18 00:04:15;;;;;;;;;;;-5.60;99.50;;;;;;5037944;28;20035;-76
2022/12/18 00:06:43;;;;;;;;;;;-5.60;99.50;;;;;;5037008;28;19932;-77
2022/12/18 00:09:10;;;;;;;;;;;-5.60;99.50;;;;;;5037771;28;19933;-75
2022/12/18 00:11:36;;;;;;;;;;;-5.60;99.50;;;;;;5039915;28;19929;-75
2022/12/18 00:14:03;;;;;;;;;;;-5.60;99.50;;;;;;5037126;28;19929;-75
2022/12/18 00:16:32;;;;;;;;;;;-5.70;99.50;;;;;;5036349;28;20773;-75
2022/12/18 00:18:59;;;;;;;;;;;-5.70;99.50;;;;;;5038738;28;19932;-75
2022/12/18 00:21:26;;;;;;;;;;;-5.70;99.50;;;;;;5039903;28;19929;-74
2022/12/18 00:23:54;;;;;;;;;;;-5.70;99.50;;;;;;5034049;28;20384;-74
2022/12/18 00:26:22;;;;;;;;;;;-5.70;99.50;;;;;;5036368;28;19933;-75
2022/12/18 00:28:49;;;;;;;;;;;-5.70;99.50;;;;;;5037838;28;19956;-74
2022/12/18 00:31:16;;;;;;;;;;;-5.70;99.50;;;;;;5036505;28;19929;-78
2022/12/18 00:33:44;;;;;;;;;;;-5.70;99.50;;;;;;5036106;28;19933;-77
2022/12/18 00:36:11;;;;;;;;;;;-5.70;99.50;;;;;;5039773;28;19929;-77
2022/12/18 00:38:38;;;;;;;;;;;-5.70;99.50;;;;;;5038908;28;20396;-75
2022/12/18 00:41:07;;;;;;;;;;;-5.70;99.50;;;;;;5039543;28;19940;-77
2022/12/18 00:43:33;;;;;;;;;;;-5.80;99.50;;;;;;5037671;28;19928;-75
2022/12/18 00:46:00;;;;;;;;;;;-5.80;99.50;;;;;;5038013;28;19928;-75
2022/12/18 00:48:27;;;;;;;;;;;-5.80;99.50;;;;;;5037529;28;19929;-74
2022/12/18 00:50:53;;;;;;;;;;;-5.80;99.50;;;;;;5035990;28;21666;-77
2022/12/18 00:53:20;;;;;;;;;;;-5.80;99.50;;;;;;5039392;28;19956;-77
2022/12/18 00:55:47;;;;;;;;;;;-5.80;99.50;;;;;;5043728;28;19932;-76
2022/12/18 00:58:16;;;;;;;;;;;-5.80;99.50;;;;;;5040777;28;19928;-76
2022/12/18 01:00:42;;;;;;;;;;;-5.80;99.50;;;;;;5039809;28;20577;-77
2022/12/18 01:03:10;;;;;;;;;;;-5.80;99.50;;;;;;5040049;28;19928;-76
2022/12/18 01:05:40;;;;;;;;;;;-5.80;99.60;;;;;;5042803;28;19939;-76
2022/12/18 01:08:06;;;;;;;;;;;-5.80;99.50;;;;;;5041246;28;19950;-77
2022/12/18 01:10:33;;;;;;;;;;;-5.80;99.50;;;;;;5039970;28;19928;-77
2022/12/18 01:12:59;;;;;;;;;;;-5.90;99.50;;;;;;5039871;28;20125;-76
2022/12/18 01:15:27;;;;;;;;;;;-5.80;99.50;;;;;;5037903;28;19936;-76
2022/12/18 01:17:54;;;;;;;;;;;-5.80;99.50;;;;;;5040885;28;19940;-77
2022/12/18 01:20:20;;;;;;;;;;;-5.90;99.50;;;;;;5042854;28;19944;-76
2022/12/18 01:22:47;;;;;;;;;;;-5.80;99.50;;;;;;5036668;28;19929;-74
2022/12/18 01:25:13;;;;;;;;;;;-5.90;99.50;;;;;;5038739;28;19928;-76
2022/12/18 01:27:40;;;;;;;;;;;-5.90;99.50;;;;;;5040979;28;19929;-76
2022/12/18 01:30:07;;;;;;;;;;;-5.90;99.50;;;;;;5039605;28;19936;-76
2022/12/18 01:32:35;;;;;;;;;;;-5.90;99.50;;;;;;5038106;28;19929;-76
2022/12/18 01:35:02;;;;;;;;;;;-5.90;99.50;;;;;;5038592;28;20696;-77
2022/12/18 01:37:28;;;;;;;;;;;-5.90;99.50;;;;;;5039832;28;19952;-77
2022/12/18 01:39:55;;;;;;;;;;;-5.90;99.50;;;;;;5039046;28;19928;-77
2022/12/18 01:42:22;;;;;;;;;;;-5.90;99.50;;;;;;5042282;28;19929;-76
2022/12/18 01:45:09;;;;;;;;;;;-5.90;99.50;;;;;;5040303;28;19932;-77
2022/12/18 01:47:39;;;;;;;;;;;-5.90;99.50;;;;;;5036021;28;19932;-76
2022/12/18 01:50:08;;;;;;;;;;;-5.90;99.50;;;;;;5042156;28;20546;-77
2022/12/18 01:52:35;;;;;;;;;;;-5.90;99.50;;;;;;5040589;28;19936;-76
2022/12/18 01:55:03;;;;;;;;;;;-5.90;99.50;;;;;;5043020;28;19940;-76
2022/12/18 01:57:29;;;;;;;;;;;-5.90;99.50;;;;;;5041781;28;19932;-76
2022/12/18 01:59:59;;;;;;;;;;;-5.90;99.50;;;;;;5041656;28;19936;-76
2022/12/18 02:02:27;;;;;;;;;;;-5.90;99.80;;;;;;5037705;28;19936;-76
2022/12/18 02:04:55;;;;;;;;;;;-5.90;99.50;;;;;;5041961;28;20305;-76
2022/12/18 02:07:25;;;;;;;;;;;-6.00;99.40;;;;;;5041193;28;21125;-76
2022/12/18 02:09:55;;;;;;;;;;;-6.00;99.40;;;;;;5040873;28;19929;-77
2022/12/18 02:12:25;;;;;;;;;;;-6.00;99.40;;;;;;5040502;28;19929;-76
2022/12/18 02:14:55;;;;;;;;;;;-6.00;99.40;;;;;;5040055;28;20325;-76
2022/12/18 02:17:23;;;;;;;;;;;-6.00;99.40;;;;;;5037679;28;20690;-77
2022/12/18 02:20:02;;;;;;;;;;;-6.00;99.40;;;;;;5039887;28;19929;-77
2022/12/18 02:22:33;;;;;;;;;;;-6.00;99.40;;;;;;5039519;28;19994;-77
2022/12/18 02:25:03;;;;;;;;;;;-6.00;99.50;;;;;;5039393;28;20790;-77
2022/12/18 02:27:33;;;;;;;;;;;-6.00;99.50;;;;;;5040328;28;19984;-76
2022/12/18 02:30:01;;;;;;;;;;;-6.00;99.50;;;;;;5041043;28;19933;-76
2022/12/18 02:32:28;;;;;;;;;;;-6.00;99.50;;;;;;5037618;28;19929;-77
2022/12/18 02:34:56;;;;;;;;;;;-6.00;99.50;;;;;;5040242;28;19929;-76
2022/12/18 02:37:24;;;;;;;;;;;-6.00;99.50;;;;;;5040344;28;19933;-77
2022/12/18 02:39:52;;;;;;;;;;;-6.00;99.50;;;;;;5038474;28;20365;-77
2022/12/18 02:42:19;;;;;;;;;;;-6.00;99.50;;;;;;5035457;28;19936;-77
2022/12/18 02:44:49;;;;;;;;;;;-6.00;99.50;;;;;;5039455;28;19940;-76
2022/12/18 02:47:17;;;;;;;;;;;-6.00;99.50;;;;;;5037058;28;19933;-77
2022/12/18 02:49:50;;;;;;;;;;;-6.00;99.50;;;;;;5039229;28;19929;-76
2022/12/18 02:52:22;;;;;;;;;;;-6.10;99.50;;;;;;5039797;28;19974;-77
2022/12/18 02:54:52;;;;;;;;;;;-6.00;99.50;;;;;;5039771;28;19928;-76
2022/12/18 02:57:21;;;;;;;;;;;-6.00;99.50;;;;;;5034919;28;20043;-76
2022/12/18 02:59:53;;;;;;;;;;;-6.10;99.50;;;;;;5038531;28;20902;-77
2022/12/18 03:02:22;;;;;;;;;;;-6.00;99.50;;;;;;5036776;28;19955;-76
2022/12/18 03:04:51;;;;;;;;;;;-6.10;99.50;;;;;;5039274;28;19933;-76
2022/12/18 03:07:19;;;;;;;;;;;-6.10;99.50;;;;;;5041490;28;19935;-76
2022/12/18 03:09:48;;;;;;;;;;;-6.10;99.50;;;;;;5038077;28;20431;-76
2022/12/18 03:12:25;;;;;;;;;;;-6.10;99.50;;;;;;5036544;28;19932;-76
2022/12/18 03:14:55;;;;;;;;;;;-6.10;99.50;;;;;;5036595;28;19933;-76
2022/12/18 03:17:23;;;;;;;;;;;-6.10;99.50;;;;;;5033826;28;19929;-77
2022/12/18 03:19:52;;;;;;;;;;;-6.10;99.50;;;;;;5040749;28;20419;-77
2022/12/18 03:22:19;;;;;;;;;;;-6.10;99.50;;;;;;5036832;28;19929;-76
2022/12/18 03:24:46;;;;;;;;;;;-6.10;99.50;;;;;;5039043;28;19935;-76
2022/12/18 03:27:15;;;;;;;;;;;-6.10;99.50;;;;;;5038205;28;19929;-77
2022/12/18 03:29:44;;;;;;;;;;;-6.10;99.50;;;;;;5039334;28;19935;-76
2022/12/18 03:32:16;;;;;;;;;;;-6.10;99.80;;;;;;5037108;28;19932;-77
2022/12/18 03:34:43;;;;;;;;;;;-6.10;99.50;;;;;;5037144;28;19960;-76
2022/12/18 03:37:10;;;;;;;;;;;-6.10;99.50;;;;;;5039616;28;19929;-76
2022/12/18 03:39:38;;;;;;;;;;;-6.10;99.50;;;;;;5036598;28;20395;-77
2022/12/18 03:42:06;;;;;;;;;;;-6.10;99.50;;;;;;5039473;28;20408;-76
2022/12/18 03:44:36;;;;;;;;;;;-6.10;99.50;;;;;;5038918;28;19944;-77
2022/12/18 03:47:07;;;;;;;;;;;-6.10;99.50;;;;;;5039431;28;19929;-76
2022/12/18 03:49:37;;;;;;;;;;;-6.10;99.50;;;;;;5038162;28;19928;-76
2022/12/18 03:52:05;;;;;;;;;;;-6.20;99.50;;;;;;5038627;28;20388;-76
2022/12/18 03:54:32;;;;;;;;;;;-6.20;99.50;;;;;;5040084;28;19990;-77
2022/12/18 03:57:03;;;;;;;;;;;-6.10;99.80;;;;;;5039770;28;20687;-76
2022/12/18 03:59:30;;;;;;;;;;;-6.20;99.40;;;;;;5036839;28;20348;-76
2022/12/18 04:01:58;;;;;;;;;;;-6.20;99.40;;;;;;5036523;28;19940;-76
2022/12/18 04:04:25;;;;;;;;;;;-6.20;99.40;;;;;;5038979;28;20006;-76
2022/12/18 04:06:54;;;;;;;;;;;-6.20;99.70;;;;;;5040435;28;19929;-76
2022/12/18 04:09:21;;;;;;;;;;;-6.20;99.40;;;;;;5035837;28;19956;-76
2022/12/18 04:11:48;;;;;;;;;;;-6.20;99.40;;;;;;5036485;28;21180;-76
2022/12/18 04:14:14;;;;;;;;;;;-6.20;99.40;;;;;;5037187;28;19935;-76
2022/12/18 04:16:41;;;;;;;;;;;-6.20;99.40;;;;;;5035622;28;19940;-76
2022/12/18 04:19:07;;;;;;;;;;;-6.20;99.40;;;;;;5038645;28;19936;-76
2022/12/18 04:21:34;;;;;;;;;;;-6.20;99.40;;;;;;5037023;28;19933;-76
2022/12/18 04:24:02;;;;;;;;;;;-6.20;99.40;;;;;;5039189;28;20385;-76
2022/12/18 04:26:29;;;;;;;;;;;-6.20;99.40;;;;;;5038696;28;19945;-76
2022/12/18 04:28:55;;;;;;;;;;;-6.20;99.40;;;;;;5042052;28;19929;-76
2022/12/18 04:31:22;;;;;;;;;;;-6.30;99.40;;;;;;5039203;28;19951;-76
2022/12/18 04:33:49;;;;;;;;;;;-6.20;99.40;;;;;;5042525;28;19955;-77
2022/12/18 04:36:15;;;;;;;;;;;-6.30;99.30;;;;;;5042656;28;19928;-74
2022/12/18 04:38:42;;;;;;;;;;;-6.30;99.30;;;;;;5042483;28;20341;-76
2022/12/18 04:41:10;;;;;;;;;;;-6.30;99.30;;;;;;5040129;28;19939;-74
2022/12/18 04:43:37;;;;;;;;;;;-6.30;99.30;;;;;;5043963;28;19939;-77
2022/12/18 04:46:04;;;;;;;;;;;-6.30;99.30;;;;;;5043837;28;19935;-76
2022/12/18 04:48:30;;;;;;;;;;;-6.30;99.30;;;;;;5042339;28;20048;-76
2022/12/18 04:50:57;;;;;;;;;;;-6.30;99.30;;;;;;5042725;28;19938;-77
2022/12/18 04:53:23;;;;;;;;;;;-6.30;99.30;;;;;;5040486;28;19929;-77
2022/12/18 04:55:50;;;;;;;;;;;-6.30;99.30;;;;;;5040615;28;19929;-76
2022/12/18 04:58:18;;;;;;;;;;;-6.40;99.30;;;;;;5037461;28;19929;-76
2022/12/18 05:00:45;;;;;;;;;;;-6.30;99.30;;;;;;5040181;28;19929;-76
2022/12/18 05:03:11;;;;;;;;;;;-6.30;99.30;;;;;;5039676;28;19935;-76
2022/12/18 05:05:38;;;;;;;;;;;-6.40;99.30;;;;;;5042894;28;21206;-76
2022/12/18 05:08:04;;;;;;;;;;;-6.40;99.20;;;;;;5041838;28;19933;-76
2022/12/18 05:10:31;;;;;;;;;;;-6.40;99.20;;;;;;5036587;28;19932;-76
2022/12/18 05:13:01;;;;;;;;;;;-6.40;99.20;;;;;;5041656;28;19929;-77
2022/12/18 05:15:29;;;;;;;;;;;-6.40;99.20;;;;;;5041218;28;20461;-76
2022/12/18 05:17:56;;;;;;;;;;;-6.40;99.20;;;;;;5038863;28;19955;-76
2022/12/18 05:20:23;;;;;;;;;;;-6.40;99.20;;;;;;5041641;28;20443;-76
2022/12/18 05:22:50;;;;;;;;;;;-6.40;99.30;;;;;;5042385;28;19933;-76
2022/12/18 05:25:16;;;;;;;;;;;-6.40;99.30;;;;;;5044087;28;19928;-76
2022/12/18 05:27:43;;;;;;;;;;;-6.40;99.30;;;;;;5041523;28;20661;-76
2022/12/18 05:30:10;;;;;;;;;;;-6.40;99.30;;;;;;5043056;28;19929;-76
2022/12/18 05:32:38;;;;;;;;;;;-6.50;99.30;;;;;;5042323;28;19931;-76
2022/12/18 05:35:06;;;;;;;;;;;-6.40;99.30;;;;;;5040774;28;20369;-76
2022/12/18 05:37:32;;;;;;;;;;;-6.40;99.30;;;;;;5039504;28;19933;-76
2022/12/18 05:39:59;;;;;;;;;;;-6.40;99.30;;;;;;5042301;28;20600;-77
2022/12/18 05:42:25;;;;;;;;;;;-6.40;99.30;;;;;;5040747;28;19936;-76
2022/12/18 05:44:52;;;;;;;;;;;-6.50;99.30;;;;;;5040044;28;19933;-76
2022/12/18 05:47:18;;;;;;;;;;;-6.50;99.30;;;;;;5041494;28;19925;-76
2022/12/18 05:49:46;;;;;;;;;;;-6.50;99.30;;;;;;5042013;28;19932;-76
2022/12/18 05:52:13;;;;;;;;;;;-6.50;99.30;;;;;;5042029;28;19929;-76
2022/12/18 05:54:40;;;;;;;;;;;-6.50;99.30;;;;;;5040704;28;19932;-76
2022/12/18 05:57:06;;;;;;;;;;;-6.50;99.20;;;;;;5040154;28;19929;-77
2022/12/18 05:59:33;;;;;;;;;;;-6.50;99.30;;;;;;5041447;28;19929;-76
2022/12/18 06:01:59;;;;;;;;;;;-6.50;99.20;;;;;;5034315;28;20603;-76
2022/12/18 06:04:27;;;;;;;;;;;-6.50;99.20;;;;;;5039654;28;20368;-77
2022/12/18 06:06:55;;;;;;;;;;;-6.50;99.50;;;;;;5037247;28;19946;-76
2022/12/18 06:09:21;;;;;;;;;;;-6.50;99.20;;;;;;5039503;28;19929;-76
2022/12/18 06:11:48;;;;;;;;;;;-6.50;99.20;;;;;;5039800;28;20492;-76
2022/12/18 06:14:17;;;;;;;;;;;-6.50;99.20;;;;;;5037459;28;20308;-76
2022/12/18 06:16:43;;;;;;;;;;;-6.60;99.20;;;;;;5037535;28;19998;-76
2022/12/18 06:19:14;;;;;;;;;;;-6.60;99.20;;;;;;5041507;28;19928;-76
2022/12/18 06:21:41;;;;;;;;;;;-6.50;99.30;;;;;;5042165;28;19933;-76
2022/12/18 06:24:08;;;;;;;;;;;-6.60;99.20;;;;;;5042478;28;19929;-75
2022/12/18 06:26:37;;;;;;;;;;;-6.60;99.20;;;;;;5041615;28;20423;-75
2022/12/18 06:29:03;;;;;;;;;;;-6.60;99.20;;;;;;5041319;28;20404;-77
2022/12/18 06:31:30;;;;;;;;;;;-6.60;99.20;;;;;;5038150;28;19929;-76
2022/12/18 06:33:57;;;;;;;;;;;-6.60;99.20;;;;;;5040559;28;19936;-75
2022/12/18 06:36:23;;;;;;;;;;;-6.60;99.20;;;;;;5045292;28;19929;-76
2022/12/18 06:38:50;;;;;;;;;;;-6.60;99.20;;;;;;5040184;28;19928;-76
2022/12/18 06:41:19;;;;;;;;;;;-6.60;99.20;;;;;;5039777;28;20428;-75
2022/12/18 06:43:46;;;;;;;;;;;-6.60;99.20;;;;;;5041682;28;20393;-75
2022/12/18 06:46:13;;;;;;;;;;;-6.60;99.20;;;;;;5040145;28;19933;-75
2022/12/18 06:48:40;;;;;;;;;;;-6.60;99.20;;;;;;5040299;28;20440;-75
2022/12/18 06:51:06;;;;;;;;;;;-6.60;99.10;;;;;;5041049;28;19929;-75
2022/12/18 06:53:33;;;;;;;;;;;-6.70;99.10;;;;;;5041263;28;20000;-75
2022/12/18 06:56:01;;;;;;;;;;;-6.60;99.20;;;;;;5035478;28;20661;-75
2022/12/18 06:58:29;;;;;;;;;;;-6.70;99.10;;;;;;5035576;28;19929;-75
2022/12/18 07:01:00;;;;;;;;;;;-6.70;99.20;;;;;;5035283;28;19929;-75
2022/12/18 07:03:26;;;;;;;;;;;-6.70;99.20;;;;;;5037294;28;19929;-75
2022/12/18 07:05:53;;;;;;;;;;;-6.70;99.20;;;;;;5036733;28;19960;-75
2022/12/18 07:08:20;;;;;;;;;;;-6.70;99.10;;;;;;5037583;28;19929;-75
2022/12/18 07:10:48;;;;;;;;;;;-6.70;99.20;;;;;;5035174;28;19929;-75
2022/12/18 07:13:15;;;;;;;;;;;-6.70;99.10;;;;;;5038453;28;19955;-75
2022/12/18 07:15:43;;;;;;;;;;;-6.70;99.10;;;;;;5035253;28;19932;-75
2022/12/18 07:18:10;;;;;;;;;;;-6.70;99.10;;;;;;5036461;28;19935;-75
2022/12/18 07:20:36;;;;;;;;;;;-6.70;99.10;;;;;;5037269;28;19929;-75
2022/12/18 07:23:03;;;;;;;;;;;-6.70;99.10;;;;;;5037898;28;19940;-75
2022/12/18 07:25:29;;;;;;;;;;;-6.70;99.10;;;;;;5038233;28;20350;-75
2022/12/18 07:27:56;;;;;;;;;;;-6.70;99.10;;;;;;5038361;28;19928;-75
2022/12/18 07:30:22;;;;;;;;;;;-6.70;99.10;;;;;;5033996;28;19932;-75
2022/12/18 07:32:50;;;;;;;;;;;-6.70;99.10;;;;;;5038123;28;19932;-75
2022/12/18 07:35:17;;;;;;;;;;;-6.80;99.00;;;;;;5036724;28;20392;-75
2022/12/18 07:37:43;;;;;;;;;;;-6.80;99.00;;;;;;5037319;28;19929;-74
2022/12/18 07:40:11;;;;;;;;;;;-6.80;99.00;;;;;;5037645;28;20393;-75
2022/12/18 07:42:37;;;;;;;;;;;-6.80;99.00;;;;;;5038998;28;19929;-75
2022/12/18 07:45:04;;;;;;;;;;;-6.80;99.00;;;;;;5035394;28;19963;-75
2022/12/18 07:47:31;;;;;;;;;;;-6.80;99.00;;;;;;5034277;28;20720;-75
2022/12/18 07:49:59;;;;;;;;;;;-6.80;99.00;;;;;;5038206;28;19928;-75
2022/12/18 07:52:25;;;;;;;;;;;-6.80;99.00;;;;;;5037060;28;19933;-75
2022/12/18 07:54:52;;;;;;;;;;;-6.80;99.00;;;;;;5036133;28;19933;-75
2022/12/18 07:57:19;;;;;;;;;;;-6.80;99.00;;;;;;5038103;28;19936;-75
2022/12/18 07:59:45;;;;;;;;;;;-6.80;99.30;;;;;;5036625;28;20415;-75
2022/12/18 08:02:12;;;;;;;;;;;-6.80;99.00;;;;;;5037946;28;19929;-75
2022/12/18 08:04:38;;;;;;;;;;;-6.80;99.00;;;;;;5038683;28;19936;-74
2022/12/18 08:07:06;;;;;;;;;;;-6.80;98.90;;;;;;5036716;28;19933;-75
2022/12/18 08:09:33;;;;;;;;;;;-6.80;98.90;;;;;;5038490;28;19932;-75
2022/12/18 08:11:59;;;;;;;;;;;-6.80;98.90;;;;;;5034608;28;19929;-75
2022/12/18 08:14:26;;;;;;;;;;;-6.80;98.90;;;;;;5032929;28;19940;-75
2022/12/18 08:16:53;;;;;;;;;;;-6.90;98.90;;;;;;5031568;28;19932;-75
2022/12/18 08:19:19;;;;;;;;;;;-6.80;98.90;;;;;;5035707;28;19937;-75
2022/12/18 08:21:46;;;;;;;;;;;-6.90;98.90;;;;;;5037054;28;20020;-75
2022/12/18 08:24:14;;;;;;;;;;;-6.90;98.90;;;;;;5034641;28;19937;-75
2022/12/18 08:26:40;;;;;;;;;;;-6.90;98.90;;;;;;5034722;28;20385;-74
2022/12/18 08:29:07;;;;;;;;;;;-6.90;98.90;;;;;;5038670;28;19936;-75
2022/12/18 08:31:34;;;;;;;;;;;-6.90;98.90;;;;;;5037865;28;20401;-75
2022/12/18 08:34:00;;;;;;;;;;;-6.90;98.60;;;;;;5039098;28;20029;-75
2022/12/18 08:36:27;;;;;;;;;;;-6.90;98.90;;;;;;5039453;28;19928;-75
2022/12/18 08:38:54;;;;;;;;;;;-6.90;98.90;;;;;;5039727;28;19929;-75
2022/12/18 08:41:22;;;;;;;;;;;-6.90;98.90;;;;;;5037627;28;19932;-75
2022/12/18 08:46:34;;;;;;;;;;;-6.90;98.90;;;;;;5038083;28;19936;-75
2022/12/18 08:49:01;;;;;;;;;;;-6.90;98.80;;;;;;5039821;28;19939;-75
2022/12/18 08:51:27;;;;;;;;;;;-6.90;98.80;;;;;;5040349;28;19936;-75
2022/12/18 08:53:54;;;;;;;;;;;-6.90;98.60;;;;;;5044108;28;19932;-75
2022/12/18 08:56:22;;;;;;;;;;;-6.90;98.80;;;;;;5039861;28;19933;-75
2022/12/18 08:58:51;;;;;;;;;;;-6.90;98.80;;;;;;5038533;28;19936;-74
2022/12/18 09:01:18;;;;;;;;;;;-7.00;98.80;;;;;;5035951;28;19929;-75
2022/12/18 09:03:44;;;;;;;;;;;-6.90;98.80;;;;;;5038692;28;19933;-75
2022/12/18 09:06:14;;;;;;;;;;;-6.90;98.80;;;;;;5036140;28;20459;-75
2022/12/18 09:08:40;;;;;;;;;;;-6.90;98.80;;;;;;5040005;28;19929;-75
2022/12/18 09:11:12;;;;;;;;;;;-6.90;98.80;;;;;;5036334;28;19935;-75
2022/12/18 09:13:40;;;;;;;;;;;-6.90;98.80;;;;;;5041236;28;20424;-75
2022/12/18 09:16:07;;;;;;;;;;;-6.90;98.80;;;;;;5041488;28;19929;-75
2022/12/18 09:18:33;;;;;;;;;;;-6.90;98.80;;;;;;5041116;28;19928;-76
2022/12/18 09:21:00;;;;;;;;;;;-6.90;98.80;;;;;;5044978;28;20290;-76
2022/12/18 09:23:27;;;;;;;;;;;-6.90;98.50;;;;;;5043678;28;20384;-76
2022/12/18 09:25:59;;;;;;;;;;;-6.90;98.40;;;;;;5040665;28;19933;-76
2022/12/18 09:28:25;;;;;;;;;;;-6.90;98.30;;;;;;5043671;28;20515;-76
2022/12/18 09:30:53;;;;;;;;;;;-6.90;98.30;;;;;;5044211;28;19963;-76
2022/12/18 09:33:20;;;;;;;;;;;-6.90;98.30;;;;;;5039321;28;19936;-76
2022/12/18 09:35:47;;;;;;;;;;;-6.90;98.30;;;;;;5039881;28;19936;-76
2022/12/18 09:38:15;;;;;;;;;;;-6.90;98.30;;;;;;5043060;28;19963;-76
2022/12/18 09:40:43;;;;;;;;;;;-6.90;98.40;;;;;;5042714;28;19935;-76
2022/12/18 09:43:14;;;;;;;;;;;-6.90;98.40;;;;;;5043149;28;19939;-76
2022/12/18 09:45:41;;;;;;;;;;;-6.80;98.40;;;;;;5044162;28;19929;-76
2022/12/18 09:48:11;;;;;;;;;;;-6.80;98.40;;;;;;5042092;28;19929;-76
2022/12/18 09:50:40;;;;;;;;;;;-6.80;98.50;;;;;;5044770;28;19929;-75
2022/12/18 09:53:09;;;;;;;;;;;-6.80;98.50;;;;;;5048457;28;19975;-76
2022/12/18 09:55:36;;;;;;;;;;;-6.80;98.50;;;;;;5040895;28;19976;-76
2022/12/18 09:58:07;;;;;;;;;;;-6.70;98.50;;;;;;5042219;28;20224;-76
2022/12/18 10:00:34;;;;;;;;;;;-6.80;98.50;;;;;;5043853;28;20610;-76
2022/12/18 10:03:01;;;;;;;;;;;-6.70;98.60;;;;;;5037035;28;19929;-75
2022/12/18 10:05:35;;;;;;;;;;;-6.70;98.60;;;;;;5044820;28;19936;-76
2022/12/18 10:08:05;;;;;;;;;;;-6.70;98.60;;;;;;5042826;28;19928;-76
2022/12/18 10:10:34;;;;;;;;;;;-6.70;98.60;;;;;;5037636;28;19949;-76
2022/12/18 10:13:05;;;;;;;;;;;-6.70;98.60;;;;;;5038064;28;19929;-76
2022/12/18 10:15:34;;;;;;;;;;;-6.70;98.60;;;;;;5041977;28;19933;-76
2022/12/18 10:18:07;;;;;;;;;;;-6.60;98.70;;;;;;5039889;28;20405;-76
2022/12/18 10:20:39;;;;;;;;;;;-6.60;98.70;;;;;;5041609;28;21582;-76
2022/12/18 10:23:13;;;;;;;;;;;-6.60;98.70;;;;;;5039998;28;20029;-76
2022/12/18 10:25:54;;;;;;;;;;;-6.60;98.70;;;;;;5037151;28;20349;-76
2022/12/18 10:28:21;;;;;;;;;;;-6.60;98.70;;;;;;5037857;28;19986;-76
2022/12/18 10:30:48;;;;;;;;;;;-6.60;98.70;;;;;;5041791;28;19929;-76
2022/12/18 10:33:16;;;;;;;;;;;-6.60;98.70;;;;;;5040066;28;20028;-76
2022/12/18 10:35:44;;;;;;;;;;;-6.60;98.70;;;;;;5040470;28;20891;-75
2022/12/18 10:38:22;;;;;;;;;;;-6.60;98.70;;;;;;5039872;28;19928;-76
2022/12/18 10:40:50;;;;;;;;;;;-6.60;98.70;;;;;;5036941;28;19937;-76
2022/12/18 10:43:20;;;;;;;;;;;-6.50;98.80;;;;;;5037010;28;20670;-76
2022/12/18 10:45:58;;;;;;;;;;;-6.50;98.80;;;;;;5041604;28;19944;-76
2022/12/18 10:48:25;;;;;;;;;;;-6.50;98.80;;;;;;5041095;28;20400;-76
2022/12/18 10:50:54;;;;;;;;;;;-6.50;98.80;;;;;;5043827;28;19928;-75
2022/12/18 10:53:23;;;;;;;;;;;-6.40;98.90;;;;;;5042842;28;22269;-76
2022/12/18 10:55:51;;;;;;;;;;;-6.40;98.90;;;;;;5042708;28;19925;-75
2022/12/18 10:58:23;;;;;;;;;;;-6.40;99.00;;;;;;5042396;28;19929;-75
2022/12/18 11:01:02;;;;;;;;;;;-6.40;99.10;;;;;;5038432;28;20503;-75
2022/12/18 11:03:35;;;;;;;;;;;-6.30;99.20;;;;;;5036879;28;20020;-75
2022/12/18 11:06:04;;;;;;;;;;;-6.30;99.30;;;;;;5031580;28;19929;-77
2022/12/18 11:08:30;;;;;;;;;;;-6.20;99.40;;;;;;5038129;28;20281;-74
2022/12/18 11:10:57;;;;;;;;;;;-6.20;99.30;;;;;;5033360;28;19940;-75
2022/12/18 11:13:25;;;;;;;;;;;-6.20;99.40;;;;;;5035333;28;19939;-75
2022/12/18 11:15:52;;;;;;;;;;;-6.10;99.30;;;;;;5039506;28;19932;-75
2022/12/18 11:18:20;;;;;;;;;;;-6.10;99.30;;;;;;5038139;28;19933;-75
2022/12/18 11:20:51;;;;;;;;;;;-6.00;99.30;;;;;;5038660;28;19972;-77
2022/12/18 11:23:19;;;;;;;;;;;-6.00;99.20;;;;;;5037022;28;19928;-77
2022/12/18 11:25:51;;;;;;;;;;;-6.00;99.10;;;;;;5035106;28;19951;-75
2022/12/18 11:28:26;;;;;;;;;;;-6.00;99.10;;;;;;5038821;28;19939;-75
2022/12/18 11:31:09;;;;;;;;;;;-6.00;99.10;;;;;;5033997;28;20332;-75
2022/12/18 11:33:36;;;;;;;;;;;-5.90;99.10;;;;;;5035356;28;19929;-75
2022/12/18 11:36:04;;;;;;;;;;;-5.90;99.00;;;;;;5041133;28;19929;-75
2022/12/18 11:38:34;;;;;;;;;;;-5.90;99.00;;;;;;5036470;28;19928;-75
2022/12/18 11:41:02;;;;;;;;;;;-5.90;98.90;;;;;;5035817;28;19939;-77
2022/12/18 11:43:31;;;;;;;;;;;-5.80;98.90;;;;;;5036571;28;19933;-77
2022/12/18 11:46:00;;;;;;;;;;;-5.80;98.90;;;;;;5037991;28;19935;-77
2022/12/18 11:48:28;;;;;;;;;;;-5.80;98.90;;;;;;5036221;28;19928;-77
2022/12/18 11:50:56;;;;;;;;;;;-5.70;98.90;;;;;;5037715;28;20347;-77
2022/12/18 11:53:24;;;;;;;;;;;-5.70;98.80;;;;;;5035930;28;20011;-75
2022/12/18 11:55:57;;;;;;;;;;;-5.70;98.80;;;;;;5038379;28;19991;-77
2022/12/18 11:58:38;;;;;;;;;;;-5.70;99.10;;;;;;5031593;28;20901;-77
2022/12/18 12:01:10;;;;;;;;;;;-5.50;98.80;;;;;;5033947;28;19933;-77
2022/12/18 12:04:06;;;;;;;;;;;-5.60;98.80;;;;;;5040965;28;20765;-76
2022/12/18 12:06:37;;;;;;;;;;;-5.60;98.80;;;;;;5035481;28;19933;-77
2022/12/18 12:09:08;;;;;;;;;;;-5.50;98.70;;;;;;5038491;28;19929;-77
2022/12/18 12:11:43;;;;;;;;;;;-5.50;98.70;;;;;;5033614;28;19936;-77
2022/12/18 12:14:18;;;;;;;;;;;-5.50;98.60;;;;;;5037672;28;19962;-76
2022/12/18 12:16:48;;;;;;;;;;;-5.50;98.60;;;;;;5036952;28;19928;-77
2022/12/18 12:19:21;;;;;;;;;;;-5.40;98.60;;;;;;5037258;28;19928;-77
2022/12/18 12:21:49;;;;;;;;;;;-5.40;98.50;;;;;;5037756;28;19933;-77
2022/12/18 12:24:22;;;;;;;;;;;-5.40;98.50;;;;;;5035010;28;20682;-77
2022/12/18 12:26:56;;;;;;;;;;;-5.40;98.50;;;;;;5040074;28;19933;-77
2022/12/18 12:29:27;;;;;;;;;;;-5.30;98.50;;;;;;5040071;28;20336;-77
2022/12/18 12:32:00;;;;;;;;;;;-5.30;98.50;;;;;;5036451;28;19940;-77
2022/12/18 12:34:28;;;;;;;;;;;-5.30;98.40;;;;;;5041216;28;19951;-77
2022/12/18 12:37:01;;;;;;;;;;;-5.20;98.40;;;;;;5030738;28;19943;-77
2022/12/18 12:39:30;;;;;;;;;;;-5.20;98.40;;;;;;5024100;28;19939;-78
2022/12/18 12:44:43;;;;;;;;;;;-5.20;98.30;;;;;;5034318;28;19944;-77
2022/12/18 12:47:13;;;;;;;;;;;-5.10;98.30;;;;;;5028287;28;20385;-77
2022/12/18 12:49:40;;;;;;;;;;;-5.10;98.30;;;;;;5040105;28;19948;-77
2022/12/18 12:52:11;;;;;;;;;;;-5.10;98.30;;;;;;5040681;28;19950;-77
2022/12/18 12:54:38;;;;;;;;;;;-5.10;98.30;;;;;;5032543;28;19929;-77
2022/12/18 12:57:10;;;;;;;;;;;-5.10;98.30;;;;;;5030202;28;19932;-78
2022/12/18 12:59:41;;;;;;;;;;;-5.00;98.40;;;;;;5028237;28;19929;-77
2022/12/18 13:02:15;;;;;;;;;;;-5.00;98.40;;;;;;5025061;28;19928;-77
2022/12/18 13:04:46;;;;;;;;;;;-5.00;98.30;;;;;;5028522;28;19933;-77
2022/12/18 13:07:16;;;;;;;;;;;-5.00;98.30;;;;;;5031844;28;19937;-77
2022/12/18 13:09:57;;;;;;;;;;;-4.90;98.20;;;;;;5034997;28;19948;-77
2022/12/18 13:15:13;;;;;;;;;;;-4.90;98.20;;;;;;5044037;28;20789;-77
2022/12/18 13:17:40;;;;;;;;;;;-4.90;98.20;;;;;;5041116;28;20006;-77
2022/12/18 13:20:08;;;;;;;;;;;-4.80;98.10;;;;;;5042934;28;19936;-77
2022/12/18 13:22:35;;;;;;;;;;;-4.80;98.10;;;;;;5042821;28;19929;-78
2022/12/18 13:25:03;;;;;;;;;;;-4.80;98.10;;;;;;5043824;28;19928;-79
2022/12/18 13:27:48;;;;;;;;;;;-4.80;98.10;;;;;;5047699;28;19980;-79
2022/12/18 13:30:33;;;;;;;;;;;-4.70;98.10;;;;;;5038805;28;19951;-77
2022/12/18 13:33:16;;;;;;;;;;;-4.70;98.10;;;;;;5040116;28;19933;-78
2022/12/18 13:35:52;;;;;;;;;;;-4.70;98.10;;;;;;5042904;28;19928;-78
2022/12/18 13:38:21;;;;;;;;;;;-4.70;98.10;;;;;;5044728;28;19936;-77
2022/12/18 13:40:57;;;;;;;;;;;-4.70;98.40;;;;;;5041312;28;19935;-77
2022/12/18 13:43:31;;;;;;;;;;;-4.60;98.10;;;;;;5041757;28;20491;-77
2022/12/18 13:46:03;;;;;;;;;;;-4.60;98.10;;;;;;5040942;28;19928;-77
2022/12/18 13:48:31;;;;;;;;;;;-4.60;98.10;;;;;;5042079;28;20278;-77
2022/12/18 13:51:01;;;;;;;;;;;-4.60;98.10;;;;;;5043852;28;19929;-78
2022/12/18 13:53:30;;;;;;;;;;;-4.60;98.10;;;;;;5047569;28;19933;-78
2022/12/18 13:55:57;;;;;;;;;;;-4.50;98.10;;;;;;5042828;28;19936;-78
2022/12/18 13:58:24;;;;;;;;;;;-4.50;98.10;;;;;;5042484;28;20054;-78
2022/12/18 14:00:50;;;;;;;;;;;-4.50;98.10;;;;;;5043171;28;19933;-78
2022/12/18 14:03:19;;;;;;;;;;;-4.50;98.10;;;;;;5043181;28;19928;-78
2022/12/18 14:05:46;;;;;;;;;;;-4.50;98.10;;;;;;5042500;28;19928;-77
2022/12/18 14:08:15;;;;;;;;;;;-4.40;98.10;;;;;;5044722;28;19992;-77
2022/12/18 14:10:42;;;;;;;;;;;-4.50;98.10;;;;;;5041540;28;19933;-77
2022/12/18 14:13:10;;;;;;;;;;;-4.50;98.10;;;;;;5042519;28;19937;-77
2022/12/18 14:15:39;;;;;;;;;;;-4.50;98.10;;;;;;5042276;28;19929;-78
2022/12/18 14:18:15;;;;;;;;;;;-4.40;98.10;;;;;;5043553;28;19940;-78
2022/12/18 14:20:50;;;;;;;;;;;-4.40;98.20;;;;;;5043779;28;19940;-77
2022/12/18 14:23:32;;;;;;;;;;;-4.40;98.20;;;;;;5039782;28;19940;-77
2022/12/18 14:25:59;;;;;;;;;;;-4.40;98.20;;;;;;5043774;28;20403;-78
2022/12/18 14:28:26;;;;;;;;;;;-4.40;98.50;;;;;;5044127;28;19944;-78
2022/12/18 14:30:54;;;;;;;;;;;-4.40;98.30;;;;;;5042442;28;20543;-78
2022/12/18 14:33:22;;;;;;;;;;;-4.40;98.30;;;;;;5041880;28;20566;-78